Patroclus — 9HA2039 — position and weather

sailwx.info

Track history (hours):
 
Tides and Currents Weather Stations Pressure Air Temp Water Temp Dewpoint Dewpoint Depression Visibility Wind Speed Wind Dir Waves Ship Positions

Patroclus

Last reported at 2018-Jun-11 16:44 UTC. Time now 2018-Jun-17 23:48 UTC.
Position N 49°48' W 003°46'.

Length 274 m; draft 17 m.

Type: Tanker. MMSI: 249848000.

Date/timePositionNaut miles runAvg speedWind from/ knotsBaromVisibWave heightAir tempDewpointWater temp
2018-Jun-11 16:44N 49°48' W 003°46'210.6
2018-Jun-11 16:30N 49°49' W 003°42'510.6
2018-Jun-11 16:00N 49°50' W 003°35'510.6
2018-Jun-11 15:30N 49°52' W 003°27'611.0
2018-Jun-11 14:58N 49°54' W 003°18'511.3
2018-Jun-11 14:30N 49°56' W 003°11'611.7
2018-Jun-11 14:00N 49°58' W 003°02'612.3
2018-Jun-11 13:29N 50°00' W 002°53'613.0
2018-Jun-11 13:00N 50°02' W 002°44'713.7
2018-Jun-11 12:29N 50°04' W 002°33'1714.6
2018-Jun-11 11:21N 50°08' W 002°08'514.9
2018-Jun-11 11:00N 50°10' W 002°00'714.6
2018-Jun-11 10:31N 50°12' W 001°49'714.0
2018-Jun-11 10:00N 50°14' W 001°39'713.3
2018-Jun-11 09:30N 50°15' W 001°29'612.7
2018-Jun-11 09:00N 50°17' W 001°19'611.9
2018-Jun-11 08:30N 50°18' W 001°10'510.9
2018-Jun-11 08:00N 50°20' W 001°02'510.2
2018-Jun-11 07:28N 50°21' W 000°54'5 9.5
2018-Jun-11 06:59N 50°22' W 000°47'4 9.3
2018-Jun-11 06:30N 50°23' W 000°40'5 9.2
2018-Jun-11 06:00N 50°25' W 000°33'5 9.5
2018-Jun-11 05:30N 50°26' W 000°26'510.1
2018-Jun-11 04:59N 50°27' W 000°18'510.8
2018-Jun-11 04:30N 50°29' W 000°10'511.2
2018-Jun-11 04:00N 50°31' W 000°02'611.6
2018-Jun-11 03:28N 50°32' E 000°08'712.3
2018-Jun-11 02:56N 50°33' E 000°18'612.8
2018-Jun-11 02:30N 50°34' E 000°27'612.8
2018-Jun-11 02:00N 50°36' E 000°36'612.8
2018-Jun-11 01:30N 50°40' E 000°44'612.6
2018-Jun-11 01:00N 50°43' E 000°53'612.2
2018-Jun-11 00:30N 50°47' E 001°01'611.9
2018-Jun-10 23:59N 50°51' E 001°09'711.3
2018-Jun-10 23:24N 50°55' E 001°17'510.5
2018-Jun-10 22:55N 50°58' E 001°23'410.0
2018-Jun-10 22:30N 51°01' E 001°27'5 9.8
2018-Jun-10 22:00N 51°05' E 001°32'5 9.6
2018-Jun-10 21:30N 51°08' E 001°38'5 9.8
2018-Jun-10 21:00N 51°12' E 001°43'510.5
2018-Jun-10 20:30N 51°16' E 001°48'611.5
2018-Jun-10 20:00N 51°21' E 001°52'612.3
2018-Jun-10 19:30N 51°26' E 001°57'612.9
2018-Jun-10 19:00N 51°31' E 002°04'713.4
2018-Jun-10 18:30N 51°37' E 002°11'713.5
2018-Jun-10 18:00N 51°41' E 002°18'713.5
2018-Jun-10 17:30N 51°47' E 002°24'812.9
2018-Jun-10 16:55N 51°54' E 002°27'613.0
2018-Jun-10 16:26N 52°00' E 002°23'512.9
2018-Jun-10 16:01N 52°05' E 002°19'712.7
2018-Jun-10 15:29N 52°11' E 002°15'10 0.7
2018-Jun-10 01:41N 52°20' E 002°09'0 0.0
2018-Jun-10 01:11N 52°20' E 002°09'0 0.0
2018-Jun-09 23:23N 52°20' E 002°09'0 0.1
2018-Jun-09 21:11N 52°20' E 002°09'0 0.3
2018-Jun-09 20:17N 52°20' E 002°09'0 0.0
2018-Jun-09 19:41N 52°20' E 002°09'0 0.0
2018-Jun-09 19:08N 52°20' E 002°09'0 0.0
2018-Jun-09 18:59N 52°20' E 002°09'0 0.0
2018-Jun-09 18:26N 52°20' E 002°09'0 0.0
2018-Jun-09 17:59N 52°20' E 002°09'0 0.1
2018-Jun-09 12:50N 52°20' E 002°09'0 0.1
2018-Jun-09 12:29N 52°20' E 002°09'0 0.0
2018-Jun-09 11:35N 52°20' E 002°09'0 0.1
2018-Jun-09 11:23N 52°20' E 002°09'0 0.1
2018-Jun-09 05:55N 52°20' E 002°09'1 1.6
2018-Jun-09 05:29N 52°20' E 002°09'1 2.6
2018-Jun-09 05:00N 52°19' E 002°07'1 2.7
2018-Jun-09 04:30N 52°17' E 002°06'1 2.8
2018-Jun-09 03:59N 52°16' E 002°05'1 2.9
2018-Jun-09 03:30N 52°17' E 002°03'2 0.9
2018-Jun-09 01:46N 52°18' E 002°03'0 0.4
2018-Jun-09 01:28N 52°19' E 002°03'0 0.2
2018-Jun-09 00:52N 52°19' E 002°03'0 0.1
2018-Jun-09 00:28N 52°19' E 002°03'0 0.1
2018-Jun-08 23:58N 52°19' E 002°03'0 0.0
2018-Jun-08 23:16N 52°19' E 002°03'0 0.0
2018-Jun-08 22:58N 52°19' E 002°03'0 0.0
2018-Jun-08 22:22N 52°19' E 002°03'0 0.0
2018-Jun-08 21:55N 52°19' E 002°03'0 0.0
2018-Jun-08 21:25N 52°19' E 002°03'0 0.1
2018-Jun-08 20:49N 52°19' E 002°03'0 0.3
2018-Jun-08 20:19N 52°19' E 002°03'0 0.4
2018-Jun-08 19:55N 52°18' E 002°03'0 0.1
2018-Jun-08 19:28N 52°18' E 002°03'0 0.0
2018-Jun-08 18:52N 52°18' E 002°03'0 0.0
2018-Jun-08 17:28N 52°18' E 002°03'1 2.5
2018-Jun-08 16:59N 52°19' E 002°01'3 5.5
2018-Jun-08 16:24N 52°20' E 001°56'5 5.1
2018-Jun-08 15:20N 52°21' E 001°47'1 1.5
2018-Jun-08 14:51N 52°21' E 001°46'2 1.5
2018-Jun-08 13:37N 52°22' E 001°48'1 0.9
2018-Jun-08 12:36N 52°23' E 001°49'2 3.5
2018-Jun-08 12:09N 52°22' E 001°52'3 9.8
2018-Jun-08 11:49N 52°22' E 001°57'410.3
2018-Jun-08 11:28N 52°20' E 002°02'1 3.2
2018-Jun-08 11:00N 52°20' E 002°05'0 0.0
2018-Jun-08 10:29N 52°20' E 002°05'0 0.0
2018-Jun-08 09:51N 52°20' E 002°05'0 0.0
2018-Jun-08 09:21N 52°20' E 002°05'0 0.0
2018-Jun-08 08:54N 52°20' E 002°05'0 0.0
2018-Jun-08 08:26N 52°20' E 002°05'0 0.1
2018-Jun-08 07:59N 52°20' E 002°05'0 0.3
2018-Jun-08 07:18N 52°20' E 002°05'0 0.1
2018-Jun-08 06:20N 52°20' E 002°05'0 0.0
2018-Jun-07 22:06N 52°20' E 002°05'0 0.0
2018-Jun-07 21:47N 52°20' E 002°05'0 0.0
2018-Jun-07 21:20N 52°20' E 002°05'0 0.1
2018-Jun-07 19:00N 52°20' E 002°05'0 0.3
2018-Jun-07 18:26N 52°20' E 002°05'0 0.0
2018-Jun-07 06:32N 52°20' E 002°05'0 0.2
2018-Jun-07 06:20N 52°20' E 002°05'0 0.2
2018-Jun-07 05:56N 52°20' E 002°05'0 0.0
2018-Jun-07 03:50N 52°20' E 002°05'0 0.0
2018-Jun-07 03:20N 52°20' E 002°05'0 0.0
2018-Jun-07 02:59N 52°20' E 002°05'0 0.0
2018-Jun-07 02:29N 52°20' E 002°05'0 0.0
2018-Jun-07 01:44N 52°20' E 002°05'0 0.0
2018-Jun-07 01:29N 52°20' E 002°05'0 0.0
2018-Jun-07 00:56N 52°20' E 002°05'0 0.0
2018-Jun-07 00:29N 52°20' E 002°05'0 0.0
2018-Jun-06 23:59N 52°20' E 002°05'0 0.0
2018-Jun-06 23:26N 52°20' E 002°05'0 0.3
2018-Jun-06 22:59N 52°20' E 002°05'0 0.3
2018-Jun-06 22:29N 52°20' E 002°05'0 0.1
2018-Jun-06 21:59N 52°20' E 002°05'0 0.0
2018-Jun-06 21:23N 52°20' E 002°05'0 0.0
2018-Jun-06 20:38N 52°20' E 002°05'0 0.1
2018-Jun-06 20:29N 52°20' E 002°05'0 0.0
2018-Jun-06 19:59N 52°20' E 002°05'0 0.1
2018-Jun-06 19:29N 52°20' E 002°05'0 0.1
2018-Jun-06 18:59N 52°20' E 002°05'0 0.1
2018-Jun-06 18:29N 52°20' E 002°05'0 0.4
2018-Jun-06 17:57N 52°20' E 002°05'0 0.1
2018-Jun-06 16:45N 52°20' E 002°05'0 0.0
2018-Jun-06 16:29N 52°20' E 002°05'0 0.0
2018-Jun-06 16:00N 52°20' E 002°05'0 0.0
2018-Jun-06 14:12N 52°20' E 002°05'0 0.0
2018-Jun-06 13:53N 52°20' E 002°05'0 0.0
2018-Jun-06 12:56N 52°20' E 002°05'0 0.0
2018-Jun-06 10:15N 52°20' E 002°05'0 0.4
2018-Jun-06 10:00N 52°20' E 002°05'0 0.2
2018-Jun-06 09:20N 52°20' E 002°05'0 0.1
2018-Jun-06 08:35N 52°20' E 002°05'0 0.1
2018-Jun-06 08:29N 52°20' E 002°05'0 0.0
2018-Jun-06 07:59N 52°20' E 002°05'0 0.1
2018-Jun-06 07:30N 52°20' E 002°05'0 0.1
2018-Jun-06 04:26N 52°20' E 002°05'0 0.0
2018-Jun-06 03:42N 52°20' E 002°05'0 0.0
2018-Jun-06 03:26N 52°20' E 002°05'0 0.0
2018-Jun-06 02:38N 52°20' E 002°05'0 0.1
2018-Jun-06 02:26N 52°20' E 002°05'0 0.0
2018-Jun-06 01:38N 52°20' E 002°05'0 0.1
2018-Jun-06 01:29N 52°20' E 002°05'0 0.0
2018-Jun-06 00:56N 52°20' E 002°05'0 0.0
2018-Jun-06 00:30N 52°20' E 002°05'0 0.0
2018-Jun-05 23:56N 52°20' E 002°05'0 0.0
2018-Jun-05 23:20N 52°20' E 002°05'0 0.0
2018-Jun-05 22:59N 52°20' E 002°05'0 0.0
2018-Jun-05 22:26N 52°20' E 002°05'0 0.3
2018-Jun-05 21:42N 52°20' E 002°05'0 0.2
2018-Jun-05 21:29N 52°20' E 002°05'0 0.1
2018-Jun-05 20:35N 52°20' E 002°05'0 0.0
2018-Jun-05 20:20N 52°20' E 002°05'0 0.0
2018-Jun-05 19:59N 52°20' E 002°05'0 0.0
2018-Jun-05 19:24N 52°20' E 002°05'0 0.0
2018-Jun-05 18:47N 52°20' E 002°05'0 0.1
2018-Jun-05 18:29N 52°20' E 002°05'0 0.1
2018-Jun-05 17:56N 52°20' E 002°05'0 0.5
2018-Jun-05 17:29N 52°20' E 002°05'0 0.2
2018-Jun-05 16:27N 52°20' E 002°05'0 0.0
2018-Jun-05 15:57N 52°20' E 002°05'0 0.0
2018-Jun-05 14:05N 52°20' E 002°05'0 0.1
2018-Jun-05 13:59N 52°20' E 002°05'0 0.0
2018-Jun-05 13:23N 52°20' E 002°05'0 0.0
2018-Jun-05 13:00N 52°20' E 002°05'0 0.0
2018-Jun-05 12:26N 52°20' E 002°05'0 0.0
2018-Jun-05 11:54N 52°20' E 002°05'0 0.0
2018-Jun-05 11:29N 52°20' E 002°05'0 0.0
2018-Jun-05 10:47N 52°20' E 002°05'0 0.0
2018-Jun-05 10:24N 52°20' E 002°05'0 0.2
2018-Jun-05 09:27N 52°20' E 002°05'0 0.4
2018-Jun-05 08:53N 52°20' E 002°05'0 0.1
2018-Jun-05 08:17N 52°20' E 002°05'0 0.0
2018-Jun-05 07:59N 52°20' E 002°05'0 0.0
2018-Jun-05 07:29N 52°20' E 002°05'0 0.0
2018-Jun-05 06:59N 52°20' E 002°05'0 0.1
2018-Jun-05 06:08N 52°20' E 002°05'0 0.1
2018-Jun-05 06:00N 52°20' E 002°05'0 0.1
2018-Jun-05 05:24N 52°20' E 002°05'0 0.4
2018-Jun-05 04:57N 52°20' E 002°05'0 0.1
2018-Jun-05 02:56N 52°20' E 002°05'0 0.0
2018-Jun-04 23:39N 52°20' E 002°05'0 0.0
2018-Jun-04 23:11N 52°20' E 002°05'0 0.0
2018-Jun-04 22:41N 52°20' E 002°05'  
Track history (hours):
 
Tides and Currents Weather Stations Pressure Air Temp Water Temp Dewpoint Dewpoint Depression Visibility Wind Speed Wind Dir Waves Ship Positions

Patroclus

Last reported at 2018-Jun-11 16:44 UTC. Time now 2018-Jun-17 23:48 UTC.
Position N 49°48' W 003°46'.

Length 274 m; draft 17 m.

Type: Tanker. MMSI: 249848000.

Date/timePositionNaut miles runAvg speedWind from/ knotsBaromVisibWave heightAir tempDewpointWater temp
2018-Jun-11 16:44N 49°48' W 003°46'210.6
2018-Jun-11 16:30N 49°49' W 003°42'510.6
2018-Jun-11 16:00N 49°50' W 003°35'510.6
2018-Jun-11 15:30N 49°52' W 003°27'611.0
2018-Jun-11 14:58N 49°54' W 003°18'511.3
2018-Jun-11 14:30N 49°56' W 003°11'611.7
2018-Jun-11 14:00N 49°58' W 003°02'612.3
2018-Jun-11 13:29N 50°00' W 002°53'613.0
2018-Jun-11 13:00N 50°02' W 002°44'713.7
2018-Jun-11 12:29N 50°04' W 002°33'1714.6
2018-Jun-11 11:21N 50°08' W 002°08'514.9
2018-Jun-11 11:00N 50°10' W 002°00'714.6
2018-Jun-11 10:31N 50°12' W 001°49'714.0
2018-Jun-11 10:00N 50°14' W 001°39'713.3
2018-Jun-11 09:30N 50°15' W 001°29'612.7
2018-Jun-11 09:00N 50°17' W 001°19'611.9
2018-Jun-11 08:30N 50°18' W 001°10'510.9
2018-Jun-11 08:00N 50°20' W 001°02'510.2
2018-Jun-11 07:28N 50°21' W 000°54'5 9.5
2018-Jun-11 06:59N 50°22' W 000°47'4 9.3
2018-Jun-11 06:30N 50°23' W 000°40'5 9.2
2018-Jun-11 06:00N 50°25' W 000°33'5 9.5
2018-Jun-11 05:30N 50°26' W 000°26'510.1
2018-Jun-11 04:59N 50°27' W 000°18'510.8
2018-Jun-11 04:30N 50°29' W 000°10'511.2
2018-Jun-11 04:00N 50°31' W 000°02'611.6
2018-Jun-11 03:28N 50°32' E 000°08'712.3
2018-Jun-11 02:56N 50°33' E 000°18'612.8
2018-Jun-11 02:30N 50°34' E 000°27'612.8
2018-Jun-11 02:00N 50°36' E 000°36'612.8
2018-Jun-11 01:30N 50°40' E 000°44'612.6
2018-Jun-11 01:00N 50°43' E 000°53'612.2
2018-Jun-11 00:30N 50°47' E 001°01'611.9
2018-Jun-10 23:59N 50°51' E 001°09'711.3
2018-Jun-10 23:24N 50°55' E 001°17'510.5
2018-Jun-10 22:55N 50°58' E 001°23'410.0
2018-Jun-10 22:30N 51°01' E 001°27'5 9.8
2018-Jun-10 22:00N 51°05' E 001°32'5 9.6
2018-Jun-10 21:30N 51°08' E 001°38'5 9.8
2018-Jun-10 21:00N 51°12' E 001°43'510.5
2018-Jun-10 20:30N 51°16' E 001°48'611.5
2018-Jun-10 20:00N 51°21' E 001°52'612.3
2018-Jun-10 19:30N 51°26' E 001°57'612.9
2018-Jun-10 19:00N 51°31' E 002°04'713.4
2018-Jun-10 18:30N 51°37' E 002°11'713.5
2018-Jun-10 18:00N 51°41' E 002°18'713.5
2018-Jun-10 17:30N 51°47' E 002°24'812.9
2018-Jun-10 16:55N 51°54' E 002°27'613.0
2018-Jun-10 16:26N 52°00' E 002°23'512.9
2018-Jun-10 16:01N 52°05' E 002°19'712.7
2018-Jun-10 15:29N 52°11' E 002°15'10 0.7
2018-Jun-10 01:41N 52°20' E 002°09'0 0.0
2018-Jun-10 01:11N 52°20' E 002°09'0 0.0
2018-Jun-09 23:23N 52°20' E 002°09'0 0.1
2018-Jun-09 21:11N 52°20' E 002°09'0 0.3
2018-Jun-09 20:17N 52°20' E 002°09'0 0.0
2018-Jun-09 19:41N 52°20' E 002°09'0 0.0
2018-Jun-09 19:08N 52°20' E 002°09'0 0.0
2018-Jun-09 18:59N 52°20' E 002°09'0 0.0
2018-Jun-09 18:26N 52°20' E 002°09'0 0.0
2018-Jun-09 17:59N 52°20' E 002°09'0 0.1
2018-Jun-09 12:50N 52°20' E 002°09'0 0.1
2018-Jun-09 12:29N 52°20' E 002°09'0 0.0
2018-Jun-09 11:35N 52°20' E 002°09'0 0.1
2018-Jun-09 11:23N 52°20' E 002°09'0 0.1
2018-Jun-09 05:55N 52°20' E 002°09'1 1.6
2018-Jun-09 05:29N 52°20' E 002°09'1 2.6
2018-Jun-09 05:00N 52°19' E 002°07'1 2.7
2018-Jun-09 04:30N 52°17' E 002°06'1 2.8
2018-Jun-09 03:59N 52°16' E 002°05'1 2.9
2018-Jun-09 03:30N 52°17' E 002°03'2 0.9
2018-Jun-09 01:46N 52°18' E 002°03'0 0.4
2018-Jun-09 01:28N 52°19' E 002°03'0 0.2
2018-Jun-09 00:52N 52°19' E 002°03'0 0.1
2018-Jun-09 00:28N 52°19' E 002°03'0 0.1
2018-Jun-08 23:58N 52°19' E 002°03'0 0.0
2018-Jun-08 23:16N 52°19' E 002°03'0 0.0
2018-Jun-08 22:58N 52°19' E 002°03'0 0.0
2018-Jun-08 22:22N 52°19' E 002°03'0 0.0
2018-Jun-08 21:55N 52°19' E 002°03'0 0.0
2018-Jun-08 21:25N 52°19' E 002°03'0 0.1
2018-Jun-08 20:49N 52°19' E 002°03'0 0.3
2018-Jun-08 20:19N 52°19' E 002°03'0 0.4
2018-Jun-08 19:55N 52°18' E 002°03'0 0.1
2018-Jun-08 19:28N 52°18' E 002°03'0 0.0
2018-Jun-08 18:52N 52°18' E 002°03'0 0.0
2018-Jun-08 17:28N 52°18' E 002°03'1 2.5
2018-Jun-08 16:59N 52°19' E 002°01'3 5.5
2018-Jun-08 16:24N 52°20' E 001°56'5 5.1
2018-Jun-08 15:20N 52°21' E 001°47'1 1.5
2018-Jun-08 14:51N 52°21' E 001°46'2 1.5
2018-Jun-08 13:37N 52°22' E 001°48'1 0.9
2018-Jun-08 12:36N 52°23' E 001°49'2 3.5
2018-Jun-08 12:09N 52°22' E 001°52'3 9.8
2018-Jun-08 11:49N 52°22' E 001°57'410.3
2018-Jun-08 11:28N 52°20' E 002°02'1 3.2
2018-Jun-08 11:00N 52°20' E 002°05'0 0.0
2018-Jun-08 10:29N 52°20' E 002°05'0 0.0
2018-Jun-08 09:51N 52°20' E 002°05'0 0.0
2018-Jun-08 09:21N 52°20' E 002°05'0 0.0
2018-Jun-08 08:54N 52°20' E 002°05'0 0.0
2018-Jun-08 08:26N 52°20' E 002°05'0 0.1
2018-Jun-08 07:59N 52°20' E 002°05'0 0.3
2018-Jun-08 07:18N 52°20' E 002°05'0 0.1
2018-Jun-08 06:20N 52°20' E 002°05'0 0.0
2018-Jun-07 22:06N 52°20' E 002°05'0 0.0
2018-Jun-07 21:47N 52°20' E 002°05'0 0.0
2018-Jun-07 21:20N 52°20' E 002°05'0 0.1
2018-Jun-07 19:00N 52°20' E 002°05'0 0.3
2018-Jun-07 18:26N 52°20' E 002°05'0 0.0
2018-Jun-07 06:32N 52°20' E 002°05'0 0.2
2018-Jun-07 06:20N 52°20' E 002°05'0 0.2
2018-Jun-07 05:56N 52°20' E 002°05'0 0.0
2018-Jun-07 03:50N 52°20' E 002°05'0 0.0
2018-Jun-07 03:20N 52°20' E 002°05'0 0.0
2018-Jun-07 02:59N 52°20' E 002°05'0 0.0
2018-Jun-07 02:29N 52°20' E 002°05'0 0.0
2018-Jun-07 01:44N 52°20' E 002°05'0 0.0
2018-Jun-07 01:29N 52°20' E 002°05'0 0.0
2018-Jun-07 00:56N 52°20' E 002°05'0 0.0
2018-Jun-07 00:29N 52°20' E 002°05'0 0.0
2018-Jun-06 23:59N 52°20' E 002°05'0 0.0
2018-Jun-06 23:26N 52°20' E 002°05'0 0.3
2018-Jun-06 22:59N 52°20' E 002°05'0 0.3
2018-Jun-06 22:29N 52°20' E 002°05'0 0.1
2018-Jun-06 21:59N 52°20' E 002°05'0 0.0
2018-Jun-06 21:23N 52°20' E 002°05'0 0.0
2018-Jun-06 20:38N 52°20' E 002°05'0 0.1
2018-Jun-06 20:29N 52°20' E 002°05'0 0.0
2018-Jun-06 19:59N 52°20' E 002°05'0 0.1
2018-Jun-06 19:29N 52°20' E 002°05'0 0.1
2018-Jun-06 18:59N 52°20' E 002°05'0 0.1
2018-Jun-06 18:29N 52°20' E 002°05'0 0.4
2018-Jun-06 17:57N 52°20' E 002°05'0 0.1
2018-Jun-06 16:45N 52°20' E 002°05'0 0.0
2018-Jun-06 16:29N 52°20' E 002°05'0 0.0
2018-Jun-06 16:00N 52°20' E 002°05'0 0.0
2018-Jun-06 14:12N 52°20' E 002°05'0 0.0
2018-Jun-06 13:53N 52°20' E 002°05'0 0.0
2018-Jun-06 12:56N 52°20' E 002°05'0 0.0
2018-Jun-06 10:15N 52°20' E 002°05'0 0.4
2018-Jun-06 10:00N 52°20' E 002°05'0 0.2
2018-Jun-06 09:20N 52°20' E 002°05'0 0.1
2018-Jun-06 08:35N 52°20' E 002°05'0 0.1
2018-Jun-06 08:29N 52°20' E 002°05'0 0.0
2018-Jun-06 07:59N 52°20' E 002°05'0 0.1
2018-Jun-06 07:30N 52°20' E 002°05'0 0.1
2018-Jun-06 04:26N 52°20' E 002°05'0 0.0
2018-Jun-06 03:42N 52°20' E 002°05'0 0.0
2018-Jun-06 03:26N 52°20' E 002°05'0 0.0
2018-Jun-06 02:38N 52°20' E 002°05'0 0.1
2018-Jun-06 02:26N 52°20' E 002°05'0 0.0
2018-Jun-06 01:38N 52°20' E 002°05'0 0.1
2018-Jun-06 01:29N 52°20' E 002°05'0 0.0
2018-Jun-06 00:56N 52°20' E 002°05'0 0.0
2018-Jun-06 00:30N 52°20' E 002°05'0 0.0
2018-Jun-05 23:56N 52°20' E 002°05'0 0.0
2018-Jun-05 23:20N 52°20' E 002°05'0 0.0
2018-Jun-05 22:59N 52°20' E 002°05'0 0.0
2018-Jun-05 22:26N 52°20' E 002°05'0 0.3
2018-Jun-05 21:42N 52°20' E 002°05'0 0.2
2018-Jun-05 21:29N 52°20' E 002°05'0 0.1
2018-Jun-05 20:35N 52°20' E 002°05'0 0.0
2018-Jun-05 20:20N 52°20' E 002°05'0 0.0
2018-Jun-05 19:59N 52°20' E 002°05'0 0.0
2018-Jun-05 19:24N 52°20' E 002°05'0 0.0
2018-Jun-05 18:47N 52°20' E 002°05'0 0.1
2018-Jun-05 18:29N 52°20' E 002°05'0 0.1
2018-Jun-05 17:56N 52°20' E 002°05'0 0.5
2018-Jun-05 17:29N 52°20' E 002°05'0 0.2
2018-Jun-05 16:27N 52°20' E 002°05'0 0.0
2018-Jun-05 15:57N 52°20' E 002°05'0 0.0
2018-Jun-05 14:05N 52°20' E 002°05'0 0.1
2018-Jun-05 13:59N 52°20' E 002°05'0 0.0
2018-Jun-05 13:23N 52°20' E 002°05'0 0.0
2018-Jun-05 13:00N 52°20' E 002°05'0 0.0
2018-Jun-05 12:26N 52°20' E 002°05'0 0.0
2018-Jun-05 11:54N 52°20' E 002°05'0 0.0
2018-Jun-05 11:29N 52°20' E 002°05'0 0.0
2018-Jun-05 10:47N 52°20' E 002°05'0 0.0
2018-Jun-05 10:24N 52°20' E 002°05'0 0.2
2018-Jun-05 09:27N 52°20' E 002°05'0 0.4
2018-Jun-05 08:53N 52°20' E 002°05'0 0.1
2018-Jun-05 08:17N 52°20' E 002°05'0 0.0
2018-Jun-05 07:59N 52°20' E 002°05'0 0.0
2018-Jun-05 07:29N 52°20' E 002°05'0 0.0
2018-Jun-05 06:59N 52°20' E 002°05'0 0.1
2018-Jun-05 06:08N 52°20' E 002°05'0 0.1
2018-Jun-05 06:00N 52°20' E 002°05'0 0.1
2018-Jun-05 05:24N 52°20' E 002°05'0 0.4
2018-Jun-05 04:57N 52°20' E 002°05'0 0.1
2018-Jun-05 02:56N 52°20' E 002°05'0 0.0
2018-Jun-04 23:39N 52°20' E 002°05'0 0.0
2018-Jun-04 23:11N 52°20' E 002°05'0 0.0
2018-Jun-04 22:41N 52°20' E 002°05'  

Dump ship's entire track history